VOZ512 YBCG-YSSY
Flight info
| Callsign | VOZ512 |
|---|---|
| Flight time | N/A |
| Altitude | 32000 |
| Route | APAGI5 APAGI H91 IGDAM H652 TESAT DCT |
| Aircraft | B738/M-VGDW/C |
Departure
| Time | 2026-05-06 17:50 |
|---|---|
| Airport | Gold Coast Airport (YBCG) |
Arrival
| Time | N/A |
|---|---|
| Airport | Sydney Kingsford Smith International Airport (YSSY) |
| Time | Latitude | Longitude | Altitude | Speed | Heading |
|---|---|---|---|---|---|
| 2026-05-06 17:17 | -28.16667 | 153.51195 | 25 ft | 0 kts | 63° |
| 2026-05-06 17:36 | -28.16673 | 153.51182 | 25 ft | 3 kts | 47° |
| 2026-05-06 17:37 | -28.16688 | 153.51169 | 28 ft | 3 kts | 25° |
| 2026-05-06 17:37 | -28.16705 | 153.51160 | 28 ft | 1 kts | 25° |
| 2026-05-06 17:37 | -28.16709 | 153.51158 | 26 ft | 0 kts | 25° |
| 2026-05-06 17:42 | -28.16699 | 153.51151 | 25 ft | 2 kts | 309° |
| 2026-05-06 17:42 | -28.16700 | 153.51130 | 28 ft | 5 kts | 249° |
| 2026-05-06 17:42 | -28.16722 | 153.51096 | 28 ft | 4 kts | 246° |
| 2026-05-06 17:43 | -28.16721 | 153.51077 | 26 ft | 4 kts | 289° |
| 2026-05-06 17:43 | -28.16698 | 153.51057 | 25 ft | 5 kts | 329° |
| 2026-05-06 17:43 | -28.16656 | 153.51030 | 29 ft | 8 kts | 330° |
| 2026-05-06 17:43 | -28.16640 | 153.51019 | 26 ft | 9 kts | 330° |
| 2026-05-06 17:44 | -28.16606 | 153.50997 | 26 ft | 8 kts | 330° |
| 2026-05-06 17:44 | -28.16559 | 153.50958 | 27 ft | 8 kts | 316° |
| 2026-05-06 17:44 | -28.16515 | 153.50920 | 28 ft | 7 kts | 313° |
| 2026-05-06 17:44 | -28.16509 | 153.50873 | 28 ft | 6 kts | 257° |
| 2026-05-06 17:45 | -28.16495 | 153.50829 | 28 ft | 6 kts | 313° |
| 2026-05-06 17:45 | -28.16451 | 153.50795 | 29 ft | 10 kts | 330° |
| 2026-05-06 17:45 | -28.16384 | 153.50752 | 29 ft | 12 kts | 330° |
| 2026-05-06 17:45 | -28.16315 | 153.50708 | 28 ft | 11 kts | 330° |
| 2026-05-06 17:46 | -28.16246 | 153.50664 | 28 ft | 11 kts | 331° |
| 2026-05-06 17:46 | -28.16180 | 153.50622 | 28 ft | 11 kts | 330° |
| 2026-05-06 17:46 | -28.16115 | 153.50581 | 28 ft | 11 kts | 330° |
| 2026-05-06 17:46 | -28.16052 | 153.50541 | 28 ft | 10 kts | 331° |
| 2026-05-06 17:47 | -28.15991 | 153.50502 | 28 ft | 10 kts | 330° |
| 2026-05-06 17:47 | -28.15932 | 153.50464 | 28 ft | 10 kts | 330° |
| 2026-05-06 17:47 | -28.15873 | 153.50427 | 28 ft | 11 kts | 330° |
| 2026-05-06 17:47 | -28.15791 | 153.50374 | 29 ft | 15 kts | 330° |
| 2026-05-06 17:48 | -28.15702 | 153.50318 | 29 ft | 14 kts | 331° |
| 2026-05-06 17:48 | -28.15633 | 153.50269 | 29 ft | 10 kts | 317° |
| 2026-05-06 17:48 | -28.15606 | 153.50201 | 29 ft | 9 kts | 265° |
| 2026-05-06 17:48 | -28.15631 | 153.50136 | 29 ft | 9 kts | 240° |
| 2026-05-06 17:49 | -28.15666 | 153.50089 | 29 ft | 5 kts | 194° |
| 2026-05-06 17:49 | -28.15680 | 153.50092 | 29 ft | 0 kts | 159° |
| 2026-05-06 17:49 | -28.15703 | 153.50106 | 29 ft | 11 kts | 150° |
| 2026-05-06 17:49 | -28.15949 | 153.50262 | 28 ft | 70 kts | 150° |
| 2026-05-06 17:50 | -28.16534 | 153.50634 | 28 ft | 123 kts | 151° |
| 2026-05-06 17:50 | -28.17415 | 153.51188 | 55 ft | 161 kts | 152° |
| 2026-05-06 17:50 | -28.18407 | 153.51782 | 509 ft | 163 kts | 153° |
| 2026-05-06 17:50 | -28.19442 | 153.52409 | 925 ft | 172 kts | 152° |
| 2026-05-06 17:51 | -28.20537 | 153.52957 | 1450 ft | 172 kts | 162° |
| 2026-05-06 17:51 | -28.21673 | 153.53434 | 1841 ft | 183 kts | 160° |
| 2026-05-06 17:51 | -28.22938 | 153.53978 | 2046 ft | 204 kts | 160° |
| 2026-05-06 17:51 | -28.24329 | 153.54554 | 2200 ft | 220 kts | 166° |
| 2026-05-06 17:52 | -28.25875 | 153.54419 | 2337 ft | 234 kts | 207° |
| 2026-05-06 17:52 | -28.27073 | 153.53156 | 2656 ft | 240 kts | 233° |
| 2026-05-06 17:52 | -28.28073 | 153.51561 | 2778 ft | 258 kts | 235° |
| 2026-05-06 17:52 | -28.29111 | 153.49842 | 3158 ft | 268 kts | 236° |
| 2026-05-06 17:53 | -28.30152 | 153.48112 | 3822 ft | 268 kts | 236° |
| 2026-05-06 17:53 | -28.31205 | 153.46365 | 4497 ft | 268 kts | 236° |
| 2026-05-06 17:53 | -28.32269 | 153.44612 | 5056 ft | 272 kts | 235° |
| 2026-05-06 17:53 | -28.33354 | 153.42836 | 5644 ft | 275 kts | 234° |
| 2026-05-06 17:54 | -28.34444 | 153.41059 | 6328 ft | 274 kts | 234° |
| 2026-05-06 17:54 | -28.35533 | 153.39284 | 6984 ft | 275 kts | 235° |
| 2026-05-06 17:54 | -28.36633 | 153.37495 | 7647 ft | 276 kts | 235° |
| 2026-05-06 17:54 | -28.37733 | 153.35704 | 8302 ft | 278 kts | 236° |
| 2026-05-06 17:55 | -28.38849 | 153.33887 | 8880 ft | 282 kts | 236° |
| 2026-05-06 17:55 | -28.39980 | 153.32050 | 9491 ft | 285 kts | 237° |
| 2026-05-06 17:55 | -28.41121 | 153.30195 | 10107 ft | 287 kts | 237° |
| 2026-05-06 17:55 | -28.42294 | 153.28286 | 10391 ft | 304 kts | 238° |
| 2026-05-06 17:56 | -28.43543 | 153.26248 | 10556 ft | 324 kts | 238° |
| 2026-05-06 17:56 | -28.44866 | 153.24088 | 10722 ft | 342 kts | 238° |
| 2026-05-06 17:56 | -28.46252 | 153.21829 | 11063 ft | 352 kts | 238° |
| 2026-05-06 17:56 | -28.47661 | 153.19537 | 11599 ft | 356 kts | 238° |
| 2026-05-06 17:57 | -28.49083 | 153.17226 | 12238 ft | 356 kts | 238° |
| 2026-05-06 17:57 | -28.50505 | 153.14912 | 12834 ft | 358 kts | 238° |
| 2026-05-06 17:57 | -28.51936 | 153.12581 | 13445 ft | 360 kts | 239° |
| 2026-05-06 17:57 | -28.53370 | 153.10244 | 14003 ft | 363 kts | 239° |
| 2026-05-06 17:58 | -28.54805 | 153.07902 | 14544 ft | 367 kts | 239° |
| 2026-05-06 17:58 | -28.56272 | 153.05508 | 15152 ft | 369 kts | 239° |
| 2026-05-06 17:58 | -28.57743 | 153.03104 | 15769 ft | 371 kts | 239° |
| 2026-05-06 17:58 | -28.59227 | 153.00678 | 16336 ft | 374 kts | 239° |
| 2026-05-06 17:59 | -28.60719 | 152.98238 | 16865 ft | 377 kts | 239° |
| 2026-05-06 17:59 | -28.62226 | 152.95771 | 17392 ft | 380 kts | 239° |
| 2026-05-06 17:59 | -28.63744 | 152.93286 | 17896 ft | 383 kts | 239° |
| 2026-05-06 17:59 | -28.65256 | 152.90809 | 18394 ft | 387 kts | 239° |
| 2026-05-06 18:00 | -28.66792 | 152.88293 | 18913 ft | 388 kts | 239° |
| 2026-05-06 18:00 | -28.68338 | 152.85758 | 19406 ft | 390 kts | 240° |
| 2026-05-06 18:00 | -28.69888 | 152.83213 | 19898 ft | 392 kts | 240° |
| 2026-05-06 18:00 | -28.71345 | 152.80820 | 20337 ft | 394 kts | 240° |
| 2026-05-06 18:01 | -28.72918 | 152.78235 | 20783 ft | 397 kts | 238° |